Latest Coastal Weather Observations for Portland Harbour

IDV60701

Issued at 9:35 am EDT Monday 24 November 2014 (issued every 10 minutes, with the page automatically refreshed every 10 minutes)

About coastal observations | Map of coastal stations | Coastal observations for VIC | Marine services | Other Formats
Station Details ID: 090192 Name: PORTLAND NTC AWS Lat: -38.34 Lon: 141.61 Height: 0.0 m
Data from the previous 72 hours. | See also: Recent months for locations in Victoria
Date/Time
EDT
Temp

°C
Wind Pressure Rain
since 9am
mm
Weather Cloud Vis
km
Sea
Height
m
Swell
Dir
 
Speed
knots
Gust
knots
hPa Trend Height
m
Period
s
Dir
24/09:30am 16.1 SW 6 8 1009.0 - - - - - - - - -
24/09:00am 15.8 WSW 6 8 1008.9 - - - - - - - - -
24/08:30am 14.7 SSW 2 3 1008.6 - - - - - - - - -
24/08:00am 14.5 WSW 5 7 1009.4 - - - - - - - - -
24/07:30am 14.5 W 4 6 1009.5 - - - - - - - - -
24/07:00am 15.2 N 4 5 1008.4 - - - - - - - - -
24/06:30am 14.9 ENE 1 2 1008.2 - - - - - - - - -
24/06:00am 16.3 NNE 3 7 1009.6 - - - - - - - - -
24/05:30am 16.3 E 3 6 1008.1 - - - - - - - - -
24/05:00am 16.3 NE 3 6 1008.5 - - - - - - - - -
24/04:30am 16.4 E 5 8 1007.7 - - - - - - - - -
24/04:00am 16.6 ENE 5 7 1008.3 - - - - - - - - -
24/03:30am 16.4 ENE 4 6 1009.5 - - - - - - - - -
24/03:00am 16.4 E 5 7 1008.9 - - - - - - - - -
24/02:30am 16.1 ENE 6 7 1009.3 - - - - - - - - -
24/02:00am 16.1 ENE 6 7 1009.7 - - - - - - - - -
24/01:30am 16.2 ENE 7 9 1010.5 - - - - - - - - -
24/01:00am 16.2 ENE 7 8 1010.8 - - - - - - - - -
24/12:30am 16.2 ENE 8 9 1011.6 - - - - - - - - -
24/12:00am 16.2 NE 7 8 1012.2 - - - - - - - - -
 
Date/Time
EDT
Temp

°C
Wind Pressure Rain
since 9am
mm
Weather Cloud Vis
km
Sea
Height
m
Swell
Dir
 
Speed
knots
Gust
knots
hPa Trend Height
m
Period
s
Dir
23/11:30pm 16.6 ENE 7 9 1012.5 - - - - - - - - -
23/11:00pm 16.4 ENE 7 9 1012.6 - - - - - - - - -
23/10:30pm 16.4 ENE 7 9 1012.4 - - - - - - - - -
23/10:00pm 16.5 ESE 5 6 1012.3 - - - - - - - - -
23/09:30pm 16.4 E 6 8 1012.1 - - - - - - - - -
23/09:00pm 16.6 ESE 5 7 1012.0 - - - - - - - - -
23/08:30pm 16.8 ESE 3 4 1012.6 - - - - - - - - -
23/08:00pm 16.8 S 4 7 1011.7 - - - - - - - - -
23/07:30pm 16.8 S 5 7 1011.9 - - - - - - - - -
23/07:00pm 17.1 S 7 9 1011.5 - - - - - - - - -
23/06:30pm 17.4 S 8 10 1011.3 - - - - - - - - -
23/06:00pm 18.1 SSW 9 14 1011.8 - - - - - - - - -
23/05:30pm 18.5 SSW 11 15 1012.1 - - - - - - - - -
23/05:00pm 18.8 SSW 10 14 1012.2 - - - - - - - - -
23/04:30pm 18.4 SW 11 15 1012.0 - - - - - - - - -
23/04:00pm 18.8 SW 12 17 1011.9 - - - - - - - - -
23/03:30pm 19.3 SW 10 16 1011.9 - - - - - - - - -
23/03:00pm 19.1 SW 7 11 1011.7 - - - - - - - - -
23/02:30pm 19.4 SSW 6 16 1011.7 - - - - - - - - -
23/02:00pm 17.8 E 10 15 1011.4 - - - - - - - - -
23/01:30pm 19.5 WNW 5 10 1011.6 - - - - - - - - -
23/01:00pm 19.2 SSW 5 11 1011.4 - - - - - - - - -
23/12:30pm 17.4 ESE 11 16 1011.8 - - - - - - - - -
23/12:00pm 17.5 SE 9 11 1012.1 - - - - - - - - -
23/11:30am 16.9 ENE 6 7 1012.2 - - - - - - - - -
23/11:00am 16.9 ENE 6 8 1012.2 - - - - - - - - -
23/10:30am 16.6 NNE 5 8 1012.5 - - - - - - - - -
23/10:00am 17.5 NW 4 10 1012.8 - - - - - - - - -
23/09:30am 16.9 NW 4 7 1012.9 - - - - - - - - -
23/09:00am 16.3 NW 3 7 1013.0 - - - - - - - - -
23/08:30am 15.3 NW 3 6 1012.4 - - - - - - - - -
23/08:00am 14.4 NW 2 3 1012.2 - - - - - - - - -
23/07:30am 12.9 WNW 3 4 1011.8 - - - - - - - - -
23/07:00am 11.4 W 4 6 1011.5 - - - - - - - - -
23/06:30am 11.2 WNW 6 7 1011.1 - - - - - - - - -
23/06:00am 10.9 W 6 7 1010.9 - - - - - - - - -
23/05:30am 11.2 W 7 8 1010.6 - - - - - - - - -
23/05:00am 11.9 W 6 7 1010.5 - - - - - - - - -
23/04:30am 12.1 W 6 7 1010.3 - - - - - - - - -
23/04:00am 12.6 W 6 7 1010.1 - - - - - - - - -
23/03:30am 13.2 WNW 5 6 1010.2 - - - - - - - - -
23/03:00am 13.3 WNW 4 6 1010.2 - - - - - - - - -
23/02:30am 13.5 WNW 4 6 1010.4 - - - - - - - - -
23/02:00am 13.3 WNW 5 7 1010.6 - - - - - - - - -
23/01:30am 13.1 W 5 6 1010.7 - - - - - - - - -
23/01:00am 13.6 W 5 7 1010.7 - - - - - - - - -
23/12:30am 14.3 WNW 5 7 1010.7 - - - - - - - - -
23/12:00am 14.6 NW 4 5 1010.5 - - - - - - - - -
 
Date/Time
EDT
Temp

°C
Wind Pressure Rain
since 9am
mm
Weather Cloud Vis
km
Sea
Height
m
Swell
Dir
 
Speed
knots
Gust
knots
hPa Trend Height
m
Period
s
Dir
22/11:30pm 14.4 WNW 3 4 1010.4 - - - - - - - - -
22/11:00pm 14.7 W 4 6 1010.3 - - - - - - - - -
22/10:30pm 15.1 W 4 6 1010.1 - - - - - - - - -
22/10:00pm 15.6 W 5 9 1009.6 - - - - - - - - -
22/09:30pm 16.1 WSW 7 9 1009.0 - - - - - - - - -
22/09:00pm 16.2 WSW 8 12 1008.5 - - - - - - - - -
22/08:30pm 16.5 WSW 9 14 1007.7 - - - - - - - - -
22/08:00pm 17.0 WSW 13 18 1006.9 - - - - - - - - -
22/07:30pm 17.4 SW 17 25 1006.5 - - - - - - - - -
22/07:00pm 18.2 WSW 19 27 1005.9 - - - - - - - - -
22/06:30pm 18.8 WSW 22 29 1005.7 - - - - - - - - -
22/06:03pm 19.4 WSW 19 30 1005.2 - - - - - - - - -
22/06:00pm 19.6 WSW 18 25 1005.2 - - - - - - - - -
22/05:30pm 20.2 W 20 30 1004.8 - - - - - - - - -
22/05:00pm 21.7 W 20 31 1004.2 - - - - - - - - -
22/04:48pm 22.3 W 19 31 1004.1 - - - - - - - - -
22/04:30pm 23.5 W 20 27 1003.7 - - - - - - - - -
22/04:08pm 24.0 W 19 29 1003.6 - - - - - - - - -
22/04:00pm 24.7 W 20 29 1003.6 - - - - - - - - -
22/03:32pm 24.4 W 20 30 1003.8 - - - - - - - - -
22/03:30pm 24.5 W 20 29 1003.8 - - - - - - - - -
22/03:00pm 25.7 W 19 29 1003.6 - - - - - - - - -
22/02:53pm 25.7 W 19 29 1003.7 - - - - - - - - -
22/02:30pm 28.4 NW 19 27 1003.5 - - - - - - - - -
22/02:15pm 28.0 NW 16 22 1003.7 - - - - - - - - -
22/02:12pm 27.1 N 20 25 1003.6 - - - - - - - - -
22/02:00pm 28.0 NW 19 28 1003.7 - - - - - - - - -
22/01:30pm 28.0 NW 19 29 1003.8 - - - - - - - - -
22/01:13pm 27.7 NNW 17 27 1004.1 - - - - - - - - -
22/01:00pm 26.5 NNW 21 29 1004.4 - - - - - - - - -
22/12:30pm 25.9 NNW 22 30 1004.5 - - - - - - - - -
22/12:15pm 25.0 N 20 33 1004.7 - - - - - - - - -
22/12:00pm 24.8 NNW 20 28 1005.0 - - - - - - - - -
22/11:30am 22.2 N 17 23 1005.2 - - - - - - - - -
22/11:00am 21.2 N 18 22 1005.6 - - - - - - - - -
22/10:30am 19.8 N 16 20 1006.2 - - - - - - - - -
22/10:00am 19.6 N 16 20 1006.6 - - - - - - - - -
22/09:30am 18.6 N 11 14 1007.0 - - - - - - - - -
22/09:00am 17.3 N 8 13 1007.5 - - - - - - - - -
22/08:30am 15.5 N 8 10 1006.8 - - - - - - - - -
22/08:00am 15.0 N 6 8 1006.7 - - - - - - - - -
22/07:30am 15.5 NNE 12 14 1006.8 - - - - - - - - -
22/07:00am 15.4 NNE 11 12 1006.9 - - - - - - - - -
22/06:30am 14.2 NNE 16 19 1006.8 - - - - - - - - -
22/06:23am 14.4 NNE 14 18 1006.5 - - - - - - - - -
22/06:00am 14.3 N 9 12 1008.6 - - - - - - - - -
22/05:30am 14.7 N 8 10 1009.3 - - - - - - - - -
22/05:00am 14.9 NE 6 9 1008.4 - - - - - - - - -
22/04:30am 15.5 E 5 7 1008.5 - - - - - - - - -
22/04:00am 14.7 ENE 1 3 1009.3 - - - - - - - - -
22/03:30am 14.3 WSW 4 6 1010.4 - - - - - - - - -
22/03:00am 14.3 WSW 9 12 1011.0 - - - - - - - - -
22/02:30am 14.2 SW 8 13 1009.9 - - - - - - - - -
22/02:00am 14.2 N 4 5 1008.8 - - - - - - - - -
22/01:30am 14.7 NNE 10 11 1009.1 - - - - - - - - -
22/01:00am 14.4 N 9 10 1009.6 - - - - - - - - -
22/12:30am 15.0 NNE 9 11 1010.1 - - - - - - - - -
22/12:00am 15.3 NNE 8 9 1010.3 - - - - - - - - -
 
Date/Time
EDT
Temp

°C
Wind Pressure Rain
since 9am
mm
Weather Cloud Vis
km
Sea
Height
m
Swell
Dir
 
Speed
knots
Gust
knots
hPa Trend Height
m
Period
s
Dir
21/11:30pm 14.4 N 5 6 1011.2 - - - - - - - - -
21/11:00pm 15.4 N 5 7 1011.4 - - - - - - - - -
21/10:30pm 15.2 NNE 4 5 1011.5 - - - - - - - - -
21/10:00pm 15.1 NNW 2 4 1011.6 - - - - - - - - -
21/09:30pm 15.2 WNW 3 4 1011.7 - - - - - - - - -
21/09:00pm 15.5 W 5 7 1011.5 - - - - - - - - -
21/08:30pm 16.1 W 8 11 1011.7 - - - - - - - - -
21/08:00pm 16.6 WSW 9 13 1011.3 - - - - - - - - -
21/07:30pm 16.8 WSW 9 12 1011.1 - - - - - - - - -
21/07:00pm 17.3 WSW 11 14 1010.9 - - - - - - - - -
21/06:30pm 17.4 WSW 10 14 1010.5 - - - - - - - - -
21/06:00pm 17.8 WSW 13 18 1010.3 - - - - - - - - -
21/05:30pm 18.7 WSW 10 15 1009.9 - - - - - - - - -
21/05:00pm 18.4 WSW 9 12 1010.1 - - - - - - - - -
21/04:30pm 17.9 WSW 10 17 1010.5 - - - - - - - - -
21/04:00pm 17.9 SW 10 17 1010.5 - - - - - - - - -
21/03:30pm 18.1 SW 12 18 1010.6 - - - - - - - - -
21/03:00pm 18.7 WSW 10 16 1010.6 - - - - - - - - -
21/02:30pm 18.2 ESE 5 9 1010.6 - - - - - - - - -
21/02:00pm 18.6 W 5 8 1010.9 - - - - - - - - -
21/01:30pm 17.9 WSW 5 14 1011.2 - - - - - - - - -
21/01:00pm 17.0 WSW 9 14 1011.5 - - - - - - - - -
21/12:30pm 16.0 W 8 19 1011.8 - - - - - - - - -
21/12:00pm 16.0 WNW 8 14 1011.9 - - - - - - - - -
21/11:30am 15.6 WSW 9 13 1012.1 - - - - - - - - -
21/11:00am 15.8 W 10 13 1012.1 - - - - - - - - -
21/10:30am 15.3 WSW 9 12 1011.9 - - - - - - - - -
21/10:00am 14.8 W 7 14 1011.7 - - - - - - - - -

Other Formats:

Comma delimited format used in spreadsheet applications
http://www.bom.gov.au/fwo/IDV60701/IDV60701.95826.axf

JavaScript Object Notation format (JSON) in row-major order
http://www.bom.gov.au/fwo/IDV60701/IDV60701.95826.json